Black Eagle — WDJJ — position and weather

sailwx.info

Track history (hours):
 
Tides and Currents Weather Stations Pressure Air Temp Water Temp Dewpoint Dewpoint Depression Visibility Wind Speed Wind Dir Waves Ship Positions

Black Eagle

Owner: Sealift Inc., Oyster Bay, NY. More information available from US FCC via Universal Licensing System and Coast Guard Vessel Documentation Center.

Last reported at 2016-Aug-28 06:10 UTC. Time now 2016-Aug-31 14:20 UTC.
Position N 32°21' W 015°48'.

Length 190 m.

Type: Cargo ship. MMSI: 369542000.

Date/timePositionNaut miles runAvg speedWind from/ knotsBaromVisibWave heightAir tempDewpointWater temp
2016-Aug-28 06:10N 32°21' W 015°48'4215.7
2016-Aug-28 03:31N 32°42' W 015°05'1715.7
2016-Aug-28 02:26N 32°49' W 014°47'1515.7
2016-Aug-28 01:30N 32°55' W 014°31'1515.5
2016-Aug-28 00:33N 33°01' W 014°15'2115.3
2016-Aug-27 23:09N 33°10' W 013°52'2415.3
2016-Aug-27 21:34N 33°21' W 013°25'3215.3
2016-Aug-27 19:28N 33°33' W 012°50'1415.4
2016-Aug-27 18:33N 33°38' W 012°34'1815.6
2016-Aug-27 17:23N 33°45' W 012°14'23615.5
2016-Aug-27 02:13N 35°21' W 007°53'1015.4
2016-Aug-27 01:33N 35°26' W 007°42'7614.7
2016-Aug-26 20:24N 35°53' W 006°15'3115.5
2016-Aug-26 18:23N 35°57' W 005°37'1214.4
2016-Aug-26 17:33N 36°03' W 005°24'7 6.3
2016-Aug-26 16:28N 36°10' W 005°23'0 0.0
2016-Aug-26 13:25N 36°10' W 005°23'0 0.0
2016-Aug-26 12:22N 36°10' W 005°23'0 0.0
2016-Aug-26 11:31N 36°10' W 005°23'0 0.0
2016-Aug-26 10:28N 36°10' W 005°23'0 0.0
2016-Aug-26 09:31N 36°10' W 005°23'0 0.5
2016-Aug-26 08:33N 36°09' W 005°24'4 4.3
2016-Aug-26 07:34N 36°05' W 005°22'7 7.1
2016-Aug-26 06:33N 36°05' W 005°13'2 1.0
2016-Aug-26 04:34N 36°06' W 005°15'34513.6
2016-Aug-25 03:07N 36°59' E 001°50'915.5
2016-Aug-25 02:33N 37°00' E 002°01'1615.8
2016-Aug-25 01:33N 37°03' E 002°20'1515.4
2016-Aug-25 00:33N 37°06' E 002°39'52514.6
2016-Aug-23 12:29N 36°34' E 013°34'1314.4
2016-Aug-23 11:33N 36°28' E 013°49'1514.9
2016-Aug-23 10:32N 36°22' E 014°06'1515.3
2016-Aug-23 09:33N 36°16' E 014°23'1515.2
2016-Aug-23 08:33N 36°08' E 014°39'5 5.2
2016-Aug-23 07:33N 36°03' E 014°42'2 2.4
2016-Aug-23 06:33N 36°06' E 014°42'9615.0
2016-Aug-23 00:09N 35°36' E 016°34'2615.3
2016-Aug-22 22:26N 35°28' E 017°05'2915.3
2016-Aug-22 20:33N 35°19' E 017°38'1515.4
2016-Aug-22 19:33N 35°14' E 017°56'12215.2
2016-Aug-22 11:33N 34°38' E 020°19'1815.0
2016-Aug-22 10:22N 34°34' E 020°39'8915.0
2016-Aug-22 04:26N 34°09' E 022°22'1314.4
2016-Aug-22 03:32N 34°06' E 022°37'1914.3
2016-Aug-22 02:13N 34°00' E 022°59'36614.8
2016-Aug-21 01:29N 32°19' E 029°59'1414.8
2016-Aug-21 00:33N 32°16' E 030°15'1514.9
2016-Aug-20 23:33N 32°12' E 030°32'1514.9
2016-Aug-20 22:33N 32°07' E 030°49'1514.9
2016-Aug-20 21:31N 32°04' E 031°07'1614.5
2016-Aug-20 20:25N 31°59' E 031°25'1414.5
2016-Aug-20 19:28N 31°55' E 031°40'1414.5
2016-Aug-20 18:31N 31°48' E 031°54'1414.3
2016-Aug-20 17:33N 31°39' E 032°06'1414.3
2016-Aug-20 16:33N 31°31' E 032°20'5 4.9
2016-Aug-20 15:27N 31°29' E 032°26'16 5.4
2016-Aug-20 12:31N 31°14' E 032°21'9 9.3
2016-Aug-20 11:31N 31°05' E 032°19'19 9.7
2016-Aug-20 09:34N 30°46' E 032°20'56 7.5
2016-Aug-20 02:08N 29°51' E 032°33'  
Track history (hours):
 
Tides and Currents Weather Stations Pressure Air Temp Water Temp Dewpoint Dewpoint Depression Visibility Wind Speed Wind Dir Waves Ship Positions

Black Eagle

Owner: Sealift Inc., Oyster Bay, NY. More information available from US FCC via Universal Licensing System and Coast Guard Vessel Documentation Center.

Last reported at 2016-Aug-28 06:10 UTC. Time now 2016-Aug-31 14:20 UTC.
Position N 32°21' W 015°48'.

Length 190 m.

Type: Cargo ship. MMSI: 369542000.

Date/timePositionNaut miles runAvg speedWind from/ knotsBaromVisibWave heightAir tempDewpointWater temp
2016-Aug-28 06:10N 32°21' W 015°48'4215.7
2016-Aug-28 03:31N 32°42' W 015°05'1715.7
2016-Aug-28 02:26N 32°49' W 014°47'1515.7
2016-Aug-28 01:30N 32°55' W 014°31'1515.5
2016-Aug-28 00:33N 33°01' W 014°15'2115.3
2016-Aug-27 23:09N 33°10' W 013°52'2415.3
2016-Aug-27 21:34N 33°21' W 013°25'3215.3
2016-Aug-27 19:28N 33°33' W 012°50'1415.4
2016-Aug-27 18:33N 33°38' W 012°34'1815.6
2016-Aug-27 17:23N 33°45' W 012°14'23615.5
2016-Aug-27 02:13N 35°21' W 007°53'1015.4
2016-Aug-27 01:33N 35°26' W 007°42'7614.7
2016-Aug-26 20:24N 35°53' W 006°15'3115.5
2016-Aug-26 18:23N 35°57' W 005°37'1214.4
2016-Aug-26 17:33N 36°03' W 005°24'7 6.3
2016-Aug-26 16:28N 36°10' W 005°23'0 0.0
2016-Aug-26 13:25N 36°10' W 005°23'0 0.0
2016-Aug-26 12:22N 36°10' W 005°23'0 0.0
2016-Aug-26 11:31N 36°10' W 005°23'0 0.0
2016-Aug-26 10:28N 36°10' W 005°23'0 0.0
2016-Aug-26 09:31N 36°10' W 005°23'0 0.5
2016-Aug-26 08:33N 36°09' W 005°24'4 4.3
2016-Aug-26 07:34N 36°05' W 005°22'7 7.1
2016-Aug-26 06:33N 36°05' W 005°13'2 1.0
2016-Aug-26 04:34N 36°06' W 005°15'34513.6
2016-Aug-25 03:07N 36°59' E 001°50'915.5
2016-Aug-25 02:33N 37°00' E 002°01'1615.8
2016-Aug-25 01:33N 37°03' E 002°20'1515.4
2016-Aug-25 00:33N 37°06' E 002°39'52514.6
2016-Aug-23 12:29N 36°34' E 013°34'1314.4
2016-Aug-23 11:33N 36°28' E 013°49'1514.9
2016-Aug-23 10:32N 36°22' E 014°06'1515.3
2016-Aug-23 09:33N 36°16' E 014°23'1515.2
2016-Aug-23 08:33N 36°08' E 014°39'5 5.2
2016-Aug-23 07:33N 36°03' E 014°42'2 2.4
2016-Aug-23 06:33N 36°06' E 014°42'9615.0
2016-Aug-23 00:09N 35°36' E 016°34'2615.3
2016-Aug-22 22:26N 35°28' E 017°05'2915.3
2016-Aug-22 20:33N 35°19' E 017°38'1515.4
2016-Aug-22 19:33N 35°14' E 017°56'12215.2
2016-Aug-22 11:33N 34°38' E 020°19'1815.0
2016-Aug-22 10:22N 34°34' E 020°39'8915.0
2016-Aug-22 04:26N 34°09' E 022°22'1314.4
2016-Aug-22 03:32N 34°06' E 022°37'1914.3
2016-Aug-22 02:13N 34°00' E 022°59'36614.8
2016-Aug-21 01:29N 32°19' E 029°59'1414.8
2016-Aug-21 00:33N 32°16' E 030°15'1514.9
2016-Aug-20 23:33N 32°12' E 030°32'1514.9
2016-Aug-20 22:33N 32°07' E 030°49'1514.9
2016-Aug-20 21:31N 32°04' E 031°07'1614.5
2016-Aug-20 20:25N 31°59' E 031°25'1414.5
2016-Aug-20 19:28N 31°55' E 031°40'1414.5
2016-Aug-20 18:31N 31°48' E 031°54'1414.3
2016-Aug-20 17:33N 31°39' E 032°06'1414.3
2016-Aug-20 16:33N 31°31' E 032°20'5 4.9
2016-Aug-20 15:27N 31°29' E 032°26'16 5.4
2016-Aug-20 12:31N 31°14' E 032°21'9 9.3
2016-Aug-20 11:31N 31°05' E 032°19'19 9.7
2016-Aug-20 09:34N 30°46' E 032°20'56 7.5
2016-Aug-20 02:08N 29°51' E 032°33'  

Dump ship's entire track history